Terminal Aerodrome Forecast
Issued by NWS

Home | Current Version | Previous Version | Text Only | Print | Product List | Glossary On
Versions: 1 2 3 4 5 6 7 8 9 10 11 12 13 14 15 16
071
FTAK31 PAJN 271720
TAFAJN
TAF
PAJN 271720Z 2718/2818 09014KT 6SM -RA BR FEW003 BKN035 OVC050
      WS020/13025KT
      TEMPO 2718/2720 3SM RA BR FEW003 BKN020 OVC030
     FM272000 11015G25KT 3SM RA BR FEW003 BKN020 OVC030
      WS020/13025KT
     FM280300 12012G20KT 4SM -RA BR BKN015 OVC025=

USA.gov is the U.S. government's official web portal to all federal, state and local government web resources and services.